SUT8211 KTEB-CYOO
Flight info
| Callsign | SUT8211 |
|---|---|
| Flight time | 0h 55m |
| Altitude | 30000 |
| Route | HAAYS DCT HUO V252 GEE |
| Aircraft | RJ1H/M-SDFGIRWY/LB1 |
Departure
| Time | 2026-04-20 22:59 |
|---|---|
| Airport | Teterboro Airport (KTEB) |
Arrival
| Time | 2026-04-20 23:55 |
|---|---|
| Airport | Oshawa Executive Airport (CYOO) |
| Time | Latitude | Longitude | Altitude | Speed | Heading |
|---|---|---|---|---|---|
| 2026-04-20 22:25 | 40.84080 | -74.06457 | 16 ft | 0 kts | 9° |
| 2026-04-20 22:54 | 40.84088 | -74.06457 | 16 ft | 3 kts | 345° |
| 2026-04-20 22:54 | 40.84094 | -74.06484 | 17 ft | 2 kts | 242° |
| 2026-04-20 22:54 | 40.84083 | -74.06482 | 21 ft | 1 kts | 157° |
| 2026-04-20 22:55 | 40.84068 | -74.06470 | 18 ft | 3 kts | 146° |
| 2026-04-20 22:55 | 40.84054 | -74.06457 | 17 ft | 2 kts | 141° |
| 2026-04-20 22:55 | 40.84046 | -74.06439 | 18 ft | 4 kts | 105° |
| 2026-04-20 22:55 | 40.84039 | -74.06374 | 18 ft | 8 kts | 94° |
| 2026-04-20 22:56 | 40.84036 | -74.06302 | 15 ft | 8 kts | 91° |
| 2026-04-20 22:56 | 40.84038 | -74.06231 | 15 ft | 6 kts | 88° |
| 2026-04-20 22:56 | 40.84039 | -74.06223 | 15 ft | 1 kts | 87° |
| 2026-04-20 22:56 | 40.84038 | -74.06200 | 15 ft | 3 kts | 95° |
| 2026-04-20 22:57 | 40.84036 | -74.06172 | 16 ft | 4 kts | 94° |
| 2026-04-20 22:57 | 40.84034 | -74.06135 | 17 ft | 0 kts | 93° |
| 2026-04-20 22:58 | 40.84033 | -74.06116 | 5 ft | 5 kts | 93° |
| 2026-04-20 22:58 | 40.84035 | -74.06048 | 18 ft | 10 kts | 63° |
| 2026-04-20 22:59 | 40.84156 | -74.06018 | 17 ft | 44 kts | 3° |
| 2026-04-20 22:59 | 40.84691 | -74.05979 | 15 ft | 109 kts | 2° |
| 2026-04-20 22:59 | 40.85586 | -74.05910 | 158 ft | 136 kts | 1° |
| 2026-04-20 22:59 | 40.86528 | -74.05781 | 631 ft | 140 kts | 4° |
| 2026-04-20 23:00 | 40.87474 | -74.05482 | 1274 ft | 145 kts | 18° |
| 2026-04-20 23:00 | 40.88470 | -74.04950 | 1669 ft | 165 kts | 13° |
| 2026-04-20 23:00 | 40.89645 | -74.05148 | 1798 ft | 186 kts | 324° |
| 2026-04-20 23:00 | 40.90362 | -74.06602 | 2052 ft | 205 kts | 280° |
| 2026-04-20 23:01 | 40.90383 | -74.08551 | 2845 ft | 220 kts | 271° |
| 2026-04-20 23:01 | 40.90340 | -74.10644 | 3639 ft | 235 kts | 270° |
| 2026-04-20 23:01 | 40.90247 | -74.12848 | 4555 ft | 242 kts | 269° |
| 2026-04-20 23:01 | 40.90111 | -74.15129 | 4946 ft | 252 kts | 268° |
| 2026-04-20 23:02 | 40.90010 | -74.17381 | 5754 ft | 241 kts | 279° |
| 2026-04-20 23:02 | 40.90537 | -74.19421 | 6846 ft | 234 kts | 296° |
| 2026-04-20 23:02 | 40.91241 | -74.21362 | 7642 ft | 238 kts | 295° |
| 2026-04-20 23:02 | 40.91987 | -74.23357 | 8475 ft | 241 kts | 296° |
| 2026-04-20 23:03 | 40.92765 | -74.25293 | 9364 ft | 242 kts | 296° |
| 2026-04-20 23:03 | 40.93593 | -74.27244 | 10241 ft | 244 kts | 297° |
| 2026-04-20 23:03 | 40.94723 | -74.29016 | 10727 ft | 269 kts | 321° |
| 2026-04-20 23:03 | 40.96545 | -74.29968 | 11119 ft | 292 kts | 335° |
| 2026-04-20 23:04 | 40.98515 | -74.30764 | 11610 ft | 299 kts | 334° |
| 2026-04-20 23:04 | 41.00523 | -74.31588 | 12111 ft | 305 kts | 333° |
| 2026-04-20 23:04 | 41.02563 | -74.32431 | 12641 ft | 309 kts | 332° |
| 2026-04-20 23:04 | 41.04619 | -74.33319 | 13132 ft | 313 kts | 331° |
| 2026-04-20 23:05 | 41.06685 | -74.34265 | 13587 ft | 315 kts | 329° |
| 2026-04-20 23:05 | 41.08748 | -74.35282 | 14054 ft | 318 kts | 328° |
| 2026-04-20 23:05 | 41.10838 | -74.36320 | 14449 ft | 322 kts | 327° |
| 2026-04-20 23:05 | 41.12951 | -74.37370 | 14818 ft | 326 kts | 327° |
| 2026-04-20 23:06 | 41.15094 | -74.38435 | 15165 ft | 331 kts | 327° |
| 2026-04-20 23:06 | 41.17265 | -74.39515 | 15499 ft | 335 kts | 327° |
| 2026-04-20 23:06 | 41.19468 | -74.40599 | 15839 ft | 340 kts | 327° |
| 2026-04-20 23:06 | 41.21704 | -74.41692 | 16158 ft | 344 kts | 327° |
| 2026-04-20 23:07 | 41.23965 | -74.42791 | 16466 ft | 348 kts | 327° |
| 2026-04-20 23:07 | 41.26256 | -74.43899 | 16771 ft | 352 kts | 327° |
| 2026-04-20 23:07 | 41.28568 | -74.45038 | 17081 ft | 356 kts | 326° |
| 2026-04-20 23:07 | 41.30828 | -74.46334 | 17354 ft | 347 kts | 316° |
| 2026-04-20 23:08 | 41.32758 | -74.48150 | 17668 ft | 336 kts | 306° |
| 2026-04-20 23:08 | 41.34471 | -74.50183 | 17974 ft | 334 kts | 302° |
| 2026-04-20 23:08 | 41.36117 | -74.52362 | 18300 ft | 334 kts | 299° |
| 2026-04-20 23:08 | 41.37723 | -74.54605 | 18615 ft | 336 kts | 298° |
| 2026-04-20 23:09 | 41.39315 | -74.56893 | 18937 ft | 337 kts | 297° |
| 2026-04-20 23:09 | 41.40887 | -74.59214 | 19266 ft | 334 kts | 294° |
| 2026-04-20 23:09 | 41.42230 | -74.61681 | 19605 ft | 326 kts | 289° |
| 2026-04-20 23:09 | 41.43457 | -74.64219 | 19946 ft | 325 kts | 288° |
| 2026-04-20 23:10 | 41.44658 | -74.66779 | 20298 ft | 326 kts | 287° |
| 2026-04-20 23:10 | 41.45863 | -74.69346 | 20628 ft | 327 kts | 288° |
| 2026-04-20 23:10 | 41.47087 | -74.71913 | 20965 ft | 329 kts | 288° |
| 2026-04-20 23:10 | 41.48328 | -74.74484 | 21294 ft | 331 kts | 288° |
| 2026-04-20 23:11 | 41.49580 | -74.77067 | 21633 ft | 332 kts | 289° |
| 2026-04-20 23:11 | 41.50852 | -74.79646 | 21940 ft | 334 kts | 289° |
| 2026-04-20 23:11 | 41.52142 | -74.82236 | 22258 ft | 335 kts | 289° |
| 2026-04-20 23:11 | 41.53433 | -74.84834 | 22575 ft | 336 kts | 289° |
| 2026-04-20 23:12 | 41.54713 | -74.87450 | 22877 ft | 337 kts | 289° |
| 2026-04-20 23:12 | 41.55992 | -74.90077 | 23181 ft | 338 kts | 289° |
| 2026-04-20 23:12 | 41.57278 | -74.92709 | 23479 ft | 339 kts | 289° |
| 2026-04-20 23:12 | 41.58574 | -74.95349 | 23764 ft | 340 kts | 289° |
| 2026-04-20 23:13 | 41.59874 | -74.98002 | 24014 ft | 342 kts | 289° |
| 2026-04-20 23:13 | 41.61175 | -75.00666 | 24227 ft | 343 kts | 289° |
| 2026-04-20 23:13 | 41.62461 | -75.03302 | 24470 ft | 344 kts | 289° |
| 2026-04-20 23:13 | 41.63767 | -75.05983 | 24691 ft | 345 kts | 289° |
| 2026-04-20 23:14 | 41.65077 | -75.08671 | 24952 ft | 344 kts | 289° |
| 2026-04-20 23:14 | 41.66399 | -75.11340 | 25241 ft | 344 kts | 289° |
| 2026-04-20 23:14 | 41.67704 | -75.14003 | 25505 ft | 342 kts | 289° |
| 2026-04-20 23:14 | 41.68999 | -75.16673 | 25768 ft | 341 kts | 289° |
| 2026-04-20 23:15 | 41.70281 | -75.19312 | 26160 ft | 336 kts | 289° |
| 2026-04-20 23:15 | 41.71556 | -75.21921 | 26462 ft | 334 kts | 289° |
| 2026-04-20 23:15 | 41.72815 | -75.24530 | 26727 ft | 333 kts | 289° |
| 2026-04-20 23:15 | 41.74062 | -75.27129 | 26987 ft | 332 kts | 289° |
| 2026-04-20 23:16 | 41.75313 | -75.29729 | 27221 ft | 332 kts | 289° |
| 2026-04-20 23:16 | 41.76571 | -75.32319 | 27460 ft | 331 kts | 290° |
| 2026-04-20 23:16 | 41.77829 | -75.34896 | 27703 ft | 331 kts | 290° |
| 2026-04-20 23:16 | 41.79088 | -75.37470 | 27943 ft | 330 kts | 290° |
| 2026-04-20 23:17 | 41.80348 | -75.40045 | 28158 ft | 330 kts | 290° |
| 2026-04-20 23:17 | 41.81601 | -75.42610 | 28382 ft | 329 kts | 290° |
| 2026-04-20 23:17 | 41.82847 | -75.45179 | 28622 ft | 328 kts | 290° |
| 2026-04-20 23:17 | 41.84084 | -75.47738 | 28857 ft | 327 kts | 290° |
| 2026-04-20 23:18 | 41.85310 | -75.50301 | 29064 ft | 326 kts | 290° |
| 2026-04-20 23:18 | 41.86527 | -75.52868 | 29258 ft | 326 kts | 290° |
| 2026-04-20 23:18 | 41.87740 | -75.55432 | 29467 ft | 325 kts | 290° |
| 2026-04-20 23:18 | 41.88946 | -75.57954 | 29674 ft | 326 kts | 290° |
| 2026-04-20 23:19 | 41.90188 | -75.60503 | 29836 ft | 326 kts | 291° |
| 2026-04-20 23:19 | 41.91433 | -75.63054 | 30018 ft | 326 kts | 291° |
| 2026-04-20 23:19 | 41.92667 | -75.65607 | 30202 ft | 325 kts | 291° |
| 2026-04-20 23:19 | 41.93888 | -75.68147 | 30301 ft | 321 kts | 291° |
| 2026-04-20 23:20 | 41.96278 | -75.73156 | 30302 ft | 318 kts | 291° |
| 2026-04-20 23:20 | 41.98651 | -75.78185 | 30310 ft | 320 kts | 291° |
| 2026-04-20 23:21 | 42.01078 | -75.83220 | 30323 ft | 322 kts | 292° |
| 2026-04-20 23:21 | 42.03515 | -75.88327 | 30323 ft | 328 kts | 292° |
| 2026-04-20 23:22 | 42.05977 | -75.93538 | 30320 ft | 337 kts | 293° |
| 2026-04-20 23:22 | 42.08556 | -75.98909 | 30313 ft | 345 kts | 294° |
| 2026-04-20 23:23 | 42.11184 | -76.04419 | 30315 ft | 353 kts | 294° |
| 2026-04-20 23:23 | 42.13865 | -76.10057 | 30312 ft | 361 kts | 295° |
| 2026-04-20 23:24 | 42.16557 | -76.15767 | 30315 ft | 363 kts | 294° |
| 2026-04-20 23:24 | 42.19137 | -76.21639 | 30327 ft | 365 kts | 293° |
| 2026-04-20 23:25 | 42.21258 | -76.26608 | 30327 ft | 364 kts | 294° |
| 2026-04-20 23:25 | 42.23806 | -76.32521 | 30335 ft | 365 kts | 294° |
| 2026-04-20 23:26 | 42.26340 | -76.38416 | 30348 ft | 365 kts | 295° |
| 2026-04-20 23:26 | 42.28915 | -76.44345 | 30339 ft | 366 kts | 295° |
| 2026-04-20 23:27 | 42.31474 | -76.50292 | 30339 ft | 366 kts | 295° |
| 2026-04-20 23:27 | 42.34042 | -76.56241 | 30332 ft | 366 kts | 295° |
| 2026-04-20 23:28 | 42.36591 | -76.62197 | 30345 ft | 365 kts | 295° |
| 2026-04-20 23:28 | 42.39138 | -76.68145 | 30340 ft | 366 kts | 296° |
| 2026-04-20 23:29 | 42.41700 | -76.74090 | 30350 ft | 366 kts | 296° |
| 2026-04-20 23:29 | 42.44263 | -76.80050 | 30350 ft | 366 kts | 296° |
| 2026-04-20 23:30 | 42.46808 | -76.86030 | 30357 ft | 366 kts | 296° |
| 2026-04-20 23:30 | 42.49313 | -76.91987 | 30349 ft | 366 kts | 297° |
| 2026-04-20 23:31 | 42.51866 | -76.97966 | 30349 ft | 366 kts | 297° |
| 2026-04-20 23:31 | 42.54413 | -77.03940 | 30344 ft | 366 kts | 297° |
| 2026-04-20 23:32 | 42.56945 | -77.09942 | 30357 ft | 366 kts | 297° |
| 2026-04-20 23:32 | 42.59456 | -77.15957 | 30347 ft | 367 kts | 298° |
| 2026-04-20 23:33 | 42.62000 | -77.21954 | 30350 ft | 367 kts | 298° |
| 2026-04-20 23:33 | 42.64546 | -77.27953 | 30357 ft | 367 kts | 298° |
| 2026-04-20 23:34 | 42.67067 | -77.33992 | 30358 ft | 367 kts | 298° |
| 2026-04-20 23:34 | 42.69581 | -77.40040 | 30358 ft | 368 kts | 298° |
| 2026-04-20 23:35 | 42.73427 | -77.49246 | 30380 ft | 377 kts | 299° |
| 2026-04-20 23:36 | 42.76020 | -77.55487 | 30371 ft | 380 kts | 300° |
| 2026-04-20 23:36 | 42.78613 | -77.61696 | 30386 ft | 380 kts | 300° |
| 2026-04-20 23:37 | 42.81207 | -77.67962 | 30379 ft | 379 kts | 300° |
| 2026-04-20 23:37 | 42.84251 | -77.73796 | 30389 ft | 380 kts | 313° |
| 2026-04-20 23:38 | 42.88233 | -77.78579 | 30385 ft | 382 kts | 320° |
| 2026-04-20 23:38 | 42.92463 | -77.82960 | 30373 ft | 382 kts | 321° |
| 2026-04-20 23:39 | 42.96720 | -77.87314 | 30366 ft | 381 kts | 321° |
| 2026-04-20 23:39 | 43.00871 | -77.91803 | 30356 ft | 380 kts | 319° |
| 2026-04-20 23:40 | 43.05235 | -77.95893 | 30345 ft | 382 kts | 327° |
| 2026-04-20 23:40 | 43.09610 | -77.99959 | 30269 ft | 377 kts | 322° |
| 2026-04-20 23:40 | 43.11703 | -78.02070 | 29210 ft | 381 kts | 322° |
| 2026-04-20 23:41 | 43.13885 | -78.04224 | 28258 ft | 382 kts | 323° |
| 2026-04-20 23:41 | 43.16052 | -78.06333 | 27335 ft | 383 kts | 323° |
| 2026-04-20 23:41 | 43.18257 | -78.08446 | 26609 ft | 390 kts | 324° |
| 2026-04-20 23:41 | 43.20449 | -78.10558 | 25954 ft | 390 kts | 323° |
| 2026-04-20 23:42 | 43.22632 | -78.12702 | 25406 ft | 382 kts | 323° |
| 2026-04-20 23:42 | 43.24764 | -78.14814 | 24873 ft | 374 kts | 323° |
| 2026-04-20 23:42 | 43.26862 | -78.16860 | 24307 ft | 367 kts | 324° |
| 2026-04-20 23:42 | 43.28933 | -78.18891 | 23698 ft | 362 kts | 323° |
| 2026-04-20 23:43 | 43.30959 | -78.20905 | 23012 ft | 356 kts | 323° |
| 2026-04-20 23:43 | 43.32909 | -78.22965 | 22347 ft | 351 kts | 321° |
| 2026-04-20 23:43 | 43.34784 | -78.25083 | 21697 ft | 346 kts | 320° |
| 2026-04-20 23:43 | 43.36636 | -78.27178 | 21067 ft | 342 kts | 320° |
| 2026-04-20 23:44 | 43.38464 | -78.29248 | 20440 ft | 338 kts | 320° |
| 2026-04-20 23:44 | 43.40313 | -78.31216 | 19825 ft | 334 kts | 323° |
| 2026-04-20 23:44 | 43.42205 | -78.33033 | 19226 ft | 331 kts | 327° |
| 2026-04-20 23:44 | 43.44103 | -78.34721 | 18640 ft | 327 kts | 324° |
| 2026-04-20 23:45 | 43.45954 | -78.36522 | 17959 ft | 324 kts | 323° |
| 2026-04-20 23:45 | 43.47778 | -78.38332 | 17286 ft | 322 kts | 323° |
| 2026-04-20 23:45 | 43.49592 | -78.40124 | 16647 ft | 319 kts | 324° |
| 2026-04-20 23:45 | 43.51401 | -78.41881 | 16042 ft | 316 kts | 324° |
| 2026-04-20 23:46 | 43.53158 | -78.43577 | 15878 ft | 300 kts | 324° |
| 2026-04-20 23:46 | 43.54829 | -78.45189 | 15751 ft | 286 kts | 324° |
| 2026-04-20 23:46 | 43.56431 | -78.46729 | 15653 ft | 282 kts | 324° |
| 2026-04-20 23:46 | 43.58060 | -78.48297 | 15592 ft | 281 kts | 324° |
| 2026-04-20 23:47 | 43.58623 | -78.48838 | 15540 ft | 276 kts | 324° |
| 2026-04-20 23:47 | 43.60036 | -78.50197 | 15143 ft | 269 kts | 324° |
| 2026-04-20 23:47 | 43.61538 | -78.51642 | 14219 ft | 264 kts | 324° |
| 2026-04-20 23:47 | 43.63051 | -78.53097 | 13058 ft | 266 kts | 324° |
| 2026-04-20 23:48 | 43.64563 | -78.54541 | 12318 ft | 263 kts | 324° |
| 2026-04-20 23:48 | 43.66065 | -78.55968 | 11532 ft | 260 kts | 324° |
| 2026-04-20 23:48 | 43.67552 | -78.57393 | 10708 ft | 259 kts | 323° |
| 2026-04-20 23:48 | 43.69029 | -78.58817 | 9871 ft | 258 kts | 323° |
| 2026-04-20 23:49 | 43.70498 | -78.60229 | 9020 ft | 256 kts | 323° |
| 2026-04-20 23:49 | 43.71937 | -78.61602 | 8224 ft | 254 kts | 323° |
| 2026-04-20 23:49 | 43.73383 | -78.62983 | 7435 ft | 252 kts | 322° |
| 2026-04-20 23:49 | 43.74811 | -78.64357 | 6823 ft | 245 kts | 322° |
| 2026-04-20 23:50 | 43.76166 | -78.65650 | 6525 ft | 228 kts | 322° |
| 2026-04-20 23:50 | 43.77434 | -78.66877 | 6151 ft | 218 kts | 321° |
| 2026-04-20 23:50 | 43.78677 | -78.68095 | 5647 ft | 223 kts | 322° |
| 2026-04-20 23:50 | 43.79943 | -78.69327 | 5412 ft | 219 kts | 322° |
| 2026-04-20 23:51 | 43.81186 | -78.70538 | 5197 ft | 218 kts | 322° |
| 2026-04-20 23:51 | 43.82430 | -78.71752 | 4935 ft | 219 kts | 322° |
| 2026-04-20 23:51 | 43.83678 | -78.72954 | 4658 ft | 217 kts | 323° |
| 2026-04-20 23:51 | 43.84903 | -78.74128 | 4206 ft | 209 kts | 323° |
| 2026-04-20 23:52 | 43.86070 | -78.75242 | 3640 ft | 203 kts | 324° |
| 2026-04-20 23:52 | 43.87229 | -78.76361 | 2793 ft | 208 kts | 324° |
| 2026-04-20 23:52 | 43.88410 | -78.77508 | 2271 ft | 196 kts | 321° |
| 2026-04-20 23:52 | 43.89195 | -78.78822 | 2149 ft | 165 kts | 298° |
| 2026-04-20 23:53 | 43.89680 | -78.80235 | 2145 ft | 161 kts | 292° |
| 2026-04-20 23:53 | 43.90077 | -78.81651 | 2114 ft | 150 kts | 290° |
| 2026-04-20 23:53 | 43.90425 | -78.82984 | 2109 ft | 146 kts | 290° |
| 2026-04-20 23:53 | 43.90772 | -78.84321 | 2004 ft | 149 kts | 290° |
| 2026-04-20 23:54 | 43.91111 | -78.85573 | 1828 ft | 129 kts | 296° |
| 2026-04-20 23:54 | 43.91840 | -78.85835 | 1826 ft | 132 kts | 37° |
| 2026-04-20 23:54 | 43.91827 | -78.84692 | 1209 ft | 140 kts | 167° |
| 2026-04-20 23:54 | 43.91502 | -78.85439 | 559 ft | 128 kts | 331° |
| 2026-04-20 23:55 | 43.91743 | -78.85593 | 379 ft | 0 kts | 92° |